createdAt,value
2017-10-15T00:00:56.025Z,100
2017-10-15T00:01:56.739Z,100
2017-10-15T00:02:57.467Z,100
2017-10-15T00:03:58.188Z,100
2017-10-15T00:04:58.905Z,100
2017-10-15T00:05:59.617Z,100
2017-10-15T00:07:00.330Z,100
2017-10-15T00:08:01.058Z,100
2017-10-15T00:09:01.771Z,100
2017-10-15T00:10:02.500Z,100
2017-10-15T00:11:03.225Z,100
2017-10-15T00:12:03.941Z,100
2017-10-15T00:13:04.655Z,100
2017-10-15T00:14:05.374Z,100
2017-10-15T00:15:06.083Z,100
2017-10-15T00:16:06.797Z,100
2017-10-15T00:17:07.511Z,100
2017-10-15T00:18:08.224Z,100
2017-10-15T00:19:08.937Z,100
2017-10-15T00:20:09.663Z,100
2017-10-15T00:21:10.376Z,100
2017-10-15T00:22:11.091Z,100
2017-10-15T00:23:11.806Z,100
2017-10-15T00:24:12.520Z,100
2017-10-15T00:25:13.242Z,100
2017-10-15T00:26:13.949Z,100
2017-10-15T00:27:14.663Z,100
2017-10-15T00:28:15.387Z,100
2017-10-15T00:29:16.101Z,100
2017-10-15T00:30:16.816Z,100
2017-10-15T00:31:17.528Z,100
2017-10-15T00:32:18.257Z,100
2017-10-15T00:33:18.969Z,100
2017-10-15T00:34:19.695Z,100
2017-10-15T00:35:20.424Z,100
2017-10-15T00:36:21.138Z,100
2017-10-15T00:37:21.857Z,100
2017-10-15T00:38:22.570Z,100
2017-10-15T00:39:23.279Z,100
2017-10-15T00:40:23.990Z,100
2017-10-15T00:41:24.703Z,100
2017-10-15T00:42:25.416Z,100
2017-10-15T00:43:26.142Z,100
2017-10-15T00:44:26.857Z,100
2017-10-15T00:45:27.571Z,100
2017-10-15T00:46:28.286Z,100
2017-10-15T00:47:29.020Z,100
2017-10-15T00:48:29.714Z,100
2017-10-15T00:49:30.428Z,100
2017-10-15T00:50:31.142Z,100
2017-10-15T00:51:31.867Z,100
2017-10-15T00:52:32.579Z,100
2017-10-15T00:53:33.290Z,100
2017-10-15T00:54:34.002Z,100
2017-10-15T00:55:34.716Z,100
2017-10-15T00:56:35.430Z,100
2017-10-15T00:57:36.159Z,100
2017-10-15T00:58:36.870Z,100
2017-10-15T00:59:37.583Z,100
2017-10-15T01:00:38.296Z,100
2017-10-15T01:01:39.010Z,100
2017-10-15T01:02:39.747Z,100
2017-10-15T01:03:40.440Z,100
2017-10-15T01:04:41.168Z,100
2017-10-15T01:05:41.883Z,100
2017-10-15T01:06:42.614Z,100
2017-10-15T01:07:43.308Z,100
2017-10-15T01:08:44.021Z,100
2017-10-15T01:09:44.734Z,100
2017-10-15T01:10:45.448Z,100
2017-10-15T01:11:46.162Z,100
2017-10-15T01:12:46.876Z,100
2017-10-15T01:13:47.604Z,100
2017-10-15T01:14:48.319Z,100
2017-10-15T01:15:49.031Z,100
2017-10-15T01:16:49.746Z,100
2017-10-15T01:17:50.457Z,100
2017-10-15T01:18:51.170Z,100
2017-10-15T01:19:51.882Z,100
2017-10-15T01:20:52.596Z,100
2017-10-15T01:21:53.309Z,100
2017-10-15T01:22:54.023Z,100
2017-10-15T01:23:54.747Z,100
2017-10-15T01:24:55.461Z,100
2017-10-15T01:25:56.188Z,100
2017-10-15T01:26:56.901Z,100
2017-10-15T01:27:57.613Z,100
2017-10-15T01:28:58.326Z,100
2017-10-15T01:29:59.040Z,100
2017-10-15T01:30:59.753Z,100
2017-10-15T01:32:00.467Z,100
2017-10-15T01:33:01.195Z,100
2017-10-15T01:34:01.913Z,100
2017-10-15T01:35:02.624Z,100
2017-10-15T01:36:03.352Z,100
2017-10-15T01:37:04.081Z,100
2017-10-15T01:38:04.797Z,100
2017-10-15T01:39:05.513Z,100
2017-10-15T01:40:06.237Z,100
2017-10-15T01:41:06.951Z,100
2017-10-15T01:42:07.664Z,100
2017-10-15T01:43:08.378Z,100
2017-10-15T01:44:09.091Z,100
2017-10-15T01:45:09.818Z,100
2017-10-15T01:46:10.531Z,100
2017-10-15T01:47:11.243Z,100
2017-10-15T01:48:11.956Z,100
2017-10-15T01:49:12.668Z,100
2017-10-15T01:50:13.385Z,100
2017-10-15T01:51:14.109Z,100
2017-10-15T01:52:14.824Z,100
2017-10-15T01:53:15.550Z,100
2017-10-15T01:54:16.269Z,100
2017-10-15T01:55:16.990Z,100
2017-10-15T01:56:17.704Z,100
2017-10-15T01:57:18.431Z,100
2017-10-15T01:58:19.144Z,100
2017-10-15T01:59:19.868Z,100
2017-10-15T02:00:20.580Z,100
2017-10-15T02:01:21.309Z,100
2017-10-15T02:02:22.035Z,100
2017-10-15T02:03:22.749Z,100
2017-10-15T02:04:23.498Z,100
2017-10-15T02:05:24.190Z,100
2017-10-15T02:06:24.918Z,100
2017-10-15T02:07:25.632Z,100
2017-10-15T02:08:26.348Z,100
2017-10-15T02:09:27.059Z,100
2017-10-15T02:10:27.771Z,100
2017-10-15T02:11:28.484Z,100
2017-10-15T02:12:29.212Z,100
2017-10-15T02:13:29.926Z,100
2017-10-15T02:14:30.637Z,100
2017-10-15T02:15:31.351Z,100
2017-10-15T02:16:32.063Z,100
2017-10-15T02:17:32.775Z,100
2017-10-15T02:18:33.489Z,100
2017-10-15T02:19:34.202Z,100
2017-10-15T02:20:34.928Z,100
2017-10-15T02:21:35.640Z,100
2017-10-15T02:22:36.355Z,100
2017-10-15T02:23:37.070Z,100
2017-10-15T02:24:37.797Z,100
2017-10-15T02:25:38.511Z,100
2017-10-15T02:26:39.224Z,100
2017-10-15T02:27:39.952Z,100
2017-10-15T02:28:40.666Z,100
2017-10-15T02:29:41.379Z,100
2017-10-15T02:30:42.106Z,100
2017-10-15T02:31:42.827Z,100
2017-10-15T02:32:43.532Z,100
2017-10-15T02:33:44.244Z,100
2017-10-15T02:34:44.972Z,100
2017-10-15T02:35:45.685Z,100
2017-10-15T02:36:46.396Z,100
2017-10-15T02:37:47.108Z,100
2017-10-15T02:38:47.822Z,100
2017-10-15T02:39:48.535Z,100
2017-10-15T02:40:49.249Z,100
2017-10-15T02:41:49.963Z,100
2017-10-15T02:42:50.677Z,100
2017-10-15T02:43:51.389Z,100
2017-10-15T02:44:52.117Z,100
2017-10-15T02:45:52.844Z,100
2017-10-15T02:46:53.557Z,100
2017-10-15T02:47:54.271Z,100
2017-10-15T02:48:54.997Z,100
2017-10-15T02:49:55.712Z,100
2017-10-15T02:50:56.433Z,100
2017-10-15T02:51:57.139Z,100
2017-10-15T02:52:57.852Z,100
2017-10-15T02:53:58.563Z,100
2017-10-15T02:54:59.277Z,100
2017-10-15T02:55:59.988Z,100
2017-10-15T02:57:00.702Z,100
2017-10-15T02:58:01.428Z,100
2017-10-15T02:59:02.143Z,100
2017-10-15T03:00:02.858Z,100
2017-10-15T03:01:03.573Z,100
2017-10-15T03:02:04.291Z,100
2017-10-15T03:03:04.997Z,100
2017-10-15T03:04:05.708Z,100
2017-10-15T03:05:06.419Z,100
2017-10-15T03:06:07.133Z,100
2017-10-15T03:07:07.845Z,100
2017-10-15T03:08:08.559Z,100
2017-10-15T03:09:09.271Z,100
2017-10-15T03:10:09.985Z,100
2017-10-15T03:11:10.698Z,100
2017-10-15T03:12:11.412Z,100
2017-10-15T03:13:12.141Z,100
2017-10-15T03:14:12.853Z,100
2017-10-15T03:15:13.566Z,100
2017-10-15T03:16:14.278Z,100
2017-10-15T03:17:14.991Z,100
2017-10-15T03:18:15.706Z,100
2017-10-15T03:19:16.420Z,100
2017-10-15T03:20:17.147Z,100
2017-10-15T03:21:17.860Z,100
2017-10-15T03:22:18.573Z,100
2017-10-15T03:23:19.286Z,100
2017-10-15T03:24:19.997Z,100
2017-10-15T03:25:20.709Z,100
2017-10-15T03:26:21.421Z,100
2017-10-15T03:27:22.149Z,100
2017-10-15T03:28:22.856Z,100
2017-10-15T03:29:23.567Z,100
2017-10-15T03:30:24.284Z,100
2017-10-15T03:31:24.992Z,100
2017-10-15T03:32:25.707Z,100
2017-10-15T03:33:26.419Z,100
2017-10-15T03:34:27.127Z,100
2017-10-15T03:35:27.840Z,100
2017-10-15T03:36:28.552Z,100
2017-10-15T03:37:29.266Z,100
2017-10-15T03:38:29.979Z,100
2017-10-15T03:39:30.698Z,100
2017-10-15T03:40:31.407Z,100
2017-10-15T03:41:32.118Z,100
2017-10-15T03:42:32.830Z,100
2017-10-15T03:43:33.547Z,100
2017-10-15T03:44:34.263Z,100
2017-10-15T03:45:34.974Z,100
2017-10-15T03:46:35.700Z,100
2017-10-15T03:47:36.419Z,100
2017-10-15T03:48:37.124Z,100
2017-10-15T03:49:37.837Z,100
2017-10-15T03:50:38.548Z,100
2017-10-15T03:51:39.258Z,100
2017-10-15T03:52:39.970Z,100
2017-10-15T03:53:40.680Z,100
2017-10-15T03:54:41.389Z,100
2017-10-15T03:55:42.111Z,100
2017-10-15T03:56:42.824Z,100
2017-10-15T03:57:43.549Z,100
2017-10-15T03:58:44.262Z,100
2017-10-15T03:59:44.977Z,100
2017-10-15T04:00:45.690Z,100
2017-10-15T04:01:46.410Z,100
2017-10-15T04:02:47.122Z,100
2017-10-15T04:03:47.836Z,100
2017-10-15T04:04:48.547Z,100
2017-10-15T04:05:49.260Z,100
2017-10-15T04:06:49.971Z,100
2017-10-15T04:07:50.682Z,100
2017-10-15T04:08:51.394Z,100
2017-10-15T04:09:52.102Z,100
2017-10-15T04:10:52.812Z,100
2017-10-15T04:11:53.526Z,100
2017-10-15T04:12:54.237Z,100
2017-10-15T04:13:54.962Z,100
2017-10-15T04:14:55.674Z,100
2017-10-15T04:15:56.387Z,100
2017-10-15T04:16:57.098Z,100
2017-10-15T04:17:57.809Z,100
2017-10-15T04:18:58.533Z,100
2017-10-15T04:19:59.243Z,100
2017-10-15T04:20:59.954Z,100
2017-10-15T04:22:00.663Z,100
2017-10-15T04:23:01.388Z,100
2017-10-15T04:24:02.101Z,100
2017-10-15T04:25:02.825Z,100
2017-10-15T04:26:03.535Z,100
2017-10-15T04:27:04.247Z,100
2017-10-15T04:28:04.972Z,100
2017-10-15T04:29:05.698Z,100
2017-10-15T04:30:06.419Z,100
2017-10-15T04:31:07.120Z,100
2017-10-15T04:32:07.834Z,100
2017-10-15T04:33:08.543Z,100
2017-10-15T04:34:09.253Z,100
2017-10-15T04:35:09.964Z,100
2017-10-15T04:36:10.676Z,100
2017-10-15T04:37:11.387Z,100
2017-10-15T04:38:12.097Z,100
2017-10-15T04:39:12.813Z,100
2017-10-15T04:40:13.521Z,100
2017-10-15T04:41:14.245Z,100
2017-10-15T04:42:14.958Z,100
2017-10-15T04:43:15.666Z,100
2017-10-15T04:44:16.378Z,100
2017-10-15T04:45:17.089Z,100
2017-10-15T04:46:17.799Z,100
2017-10-15T04:47:18.511Z,100
2017-10-15T04:48:19.236Z,100
2017-10-15T04:49:19.947Z,100
2017-10-15T04:50:20.659Z,100
2017-10-15T04:51:21.369Z,100
2017-10-15T04:52:22.083Z,100
2017-10-15T04:53:22.792Z,100
2017-10-15T04:54:23.503Z,100
2017-10-15T04:55:24.214Z,100
2017-10-15T04:56:24.926Z,100
2017-10-15T04:57:25.639Z,100
2017-10-15T04:58:26.351Z,100
2017-10-15T04:59:27.077Z,100
2017-10-15T05:00:27.775Z,100
2017-10-15T05:01:28.485Z,100
2017-10-15T05:02:29.196Z,100
2017-10-15T05:03:29.907Z,100
2017-10-15T05:04:30.621Z,100
2017-10-15T05:05:31.331Z,100
2017-10-15T05:06:32.057Z,100
2017-10-15T05:07:32.767Z,100
2017-10-15T05:08:33.479Z,100
2017-10-15T05:09:34.189Z,100
2017-10-15T05:10:34.900Z,100
2017-10-15T05:11:35.611Z,100
2017-10-15T05:12:36.321Z,100
2017-10-15T05:13:37.045Z,100
2017-10-15T05:14:37.760Z,100
2017-10-15T05:15:38.467Z,100
2017-10-15T05:16:39.178Z,100
2017-10-15T05:17:39.889Z,100
2017-10-15T05:18:40.600Z,100
2017-10-15T05:19:41.310Z,100
2017-10-15T05:20:42.023Z,100
2017-10-15T05:21:42.732Z,100
2017-10-15T05:22:43.444Z,100
2017-10-15T05:23:44.160Z,100
2017-10-15T05:24:44.870Z,100
2017-10-15T05:25:45.582Z,100
2017-10-15T05:26:46.305Z,100
2017-10-15T05:27:47.017Z,100
2017-10-15T05:28:47.744Z,100
2017-10-15T05:29:48.452Z,100
2017-10-15T05:30:49.163Z,100
2017-10-15T05:31:49.873Z,100
2017-10-15T05:32:50.584Z,100
2017-10-15T05:33:51.296Z,100
2017-10-15T05:34:52.009Z,100
2017-10-15T05:35:52.734Z,100
2017-10-15T05:36:53.459Z,100
2017-10-15T05:37:54.172Z,100
2017-10-15T05:38:54.883Z,100
2017-10-15T05:39:55.598Z,100
2017-10-15T05:40:56.321Z,100
2017-10-15T05:41:57.032Z,100
2017-10-15T05:42:57.745Z,100
2017-10-15T05:43:58.457Z,100
2017-10-15T05:44:59.170Z,100
2017-10-15T05:45:59.883Z,100
2017-10-15T05:47:00.597Z,100
2017-10-15T05:48:01.310Z,100
2017-10-15T05:49:02.024Z,100
2017-10-15T05:50:02.743Z,100
2017-10-15T05:51:03.452Z,100
2017-10-15T05:52:04.168Z,100
2017-10-15T05:53:04.881Z,100
2017-10-15T05:54:05.595Z,100
2017-10-15T05:55:06.320Z,100
2017-10-15T05:56:07.033Z,100
2017-10-15T05:57:07.747Z,100
2017-10-15T05:58:08.461Z,100
2017-10-15T05:59:09.177Z,100
2017-10-15T06:00:09.894Z,100
2017-10-15T06:01:10.609Z,100
2017-10-15T06:02:11.323Z,100
2017-10-15T06:03:12.039Z,100
2017-10-15T06:04:12.767Z,100
2017-10-15T06:05:13.482Z,100
2017-10-15T06:06:14.195Z,100
2017-10-15T06:07:14.919Z,100
2017-10-15T06:08:15.636Z,100
2017-10-15T06:09:16.351Z,100
2017-10-15T06:10:17.066Z,100
2017-10-15T06:11:17.782Z,100
2017-10-15T06:12:18.495Z,100
2017-10-15T06:13:19.210Z,100
2017-10-15T06:14:19.925Z,100
2017-10-15T06:15:20.640Z,100
2017-10-15T06:16:21.357Z,100
2017-10-15T06:17:22.073Z,100
2017-10-15T06:18:22.790Z,100
2017-10-15T06:19:23.508Z,100
2017-10-15T06:20:24.224Z,100
2017-10-15T06:21:24.941Z,100
2017-10-15T06:22:25.658Z,100
2017-10-15T06:23:26.374Z,100
2017-10-15T06:24:27.090Z,100
2017-10-15T06:25:27.808Z,100
2017-10-15T06:26:28.537Z,100
2017-10-15T06:27:29.253Z,100
2017-10-15T06:28:29.969Z,100
2017-10-15T06:29:30.686Z,100
2017-10-15T06:30:31.406Z,100
2017-10-15T06:31:32.124Z,100
2017-10-15T06:32:32.839Z,100
2017-10-15T06:33:33.556Z,100
2017-10-15T06:34:34.276Z,100
2017-10-15T06:35:34.990Z,100
2017-10-15T06:36:35.707Z,100
2017-10-15T06:37:36.425Z,100
2017-10-15T06:38:37.147Z,100
2017-10-15T06:39:37.865Z,100
2017-10-15T06:40:38.586Z,100
2017-10-15T06:41:39.304Z,100
2017-10-15T06:42:40.037Z,100
2017-10-15T06:43:40.755Z,100
2017-10-15T06:44:41.475Z,100
2017-10-15T06:45:42.194Z,100
2017-10-15T06:46:42.917Z,100
2017-10-15T06:47:43.631Z,100
2017-10-15T06:48:44.352Z,100
2017-10-15T06:49:45.073Z,100
2017-10-15T06:50:45.796Z,100
2017-10-15T06:51:46.511Z,100
2017-10-15T06:52:47.230Z,100
2017-10-15T06:53:47.950Z,100
2017-10-15T06:54:48.681Z,100
2017-10-15T06:55:49.401Z,100
2017-10-15T06:56:50.126Z,100
2017-10-15T06:57:50.842Z,100
2017-10-15T06:58:51.570Z,100
2017-10-15T06:59:52.299Z,100
2017-10-15T07:00:53.017Z,100
2017-10-15T07:01:53.740Z,100
2017-10-15T07:02:54.474Z,100
2017-10-15T07:03:55.193Z,100
2017-10-15T07:04:55.915Z,100
2017-10-15T07:05:56.633Z,99
2017-10-15T07:06:57.353Z,99
2017-10-15T07:07:58.074Z,97
2017-10-15T07:08:58.794Z,95
2017-10-15T07:09:59.514Z,95
2017-10-15T07:11:00.236Z,95
2017-10-15T07:12:00.957Z,94
2017-10-15T07:13:01.677Z,92
2017-10-15T07:14:02.396Z,92
2017-10-15T07:15:03.133Z,92
2017-10-15T07:16:03.864Z,91
2017-10-15T07:17:04.605Z,87
2017-10-15T07:18:05.321Z,86
2017-10-15T07:19:06.056Z,86
2017-10-15T07:20:06.779Z,88
2017-10-15T07:21:07.503Z,87
2017-10-15T07:22:08.224Z,87
2017-10-15T07:23:08.961Z,87
2017-10-15T07:24:09.693Z,87
2017-10-15T07:25:10.418Z,85
2017-10-15T07:26:11.154Z,86
2017-10-15T07:27:11.878Z,87
2017-10-15T07:28:12.602Z,85
2017-10-15T07:29:13.327Z,85
2017-10-15T07:30:14.048Z,87
2017-10-15T07:31:14.771Z,87
2017-10-15T07:32:15.495Z,86
2017-10-15T07:33:16.221Z,85
2017-10-15T07:34:16.945Z,83
2017-10-15T07:35:17.670Z,83
2017-10-15T07:36:18.403Z,83
2017-10-15T07:37:19.140Z,82
2017-10-15T07:38:19.862Z,82
2017-10-15T07:39:20.596Z,82
2017-10-15T07:40:21.322Z,85
2017-10-15T07:41:22.049Z,85
2017-10-15T07:42:22.776Z,85
2017-10-15T07:43:23.499Z,85
2017-10-15T07:44:24.225Z,83
2017-10-15T07:45:24.950Z,83
2017-10-15T07:46:25.675Z,85
2017-10-15T07:47:26.404Z,85
2017-10-15T07:48:27.128Z,85
2017-10-15T07:49:27.854Z,84
2017-10-15T07:50:28.582Z,82
2017-10-15T07:51:29.308Z,81
2017-10-15T07:52:30.036Z,80
2017-10-15T07:53:30.763Z,80
2017-10-15T07:54:31.494Z,79
2017-10-15T07:55:32.236Z,79
2017-10-15T07:56:32.967Z,79
2017-10-15T07:57:33.692Z,78
2017-10-15T07:58:34.419Z,78
2017-10-15T07:59:35.151Z,78
2017-10-15T08:00:35.884Z,77
2017-10-15T08:01:36.616Z,77
2017-10-15T08:02:37.353Z,78
2017-10-15T08:03:38.113Z,79
2017-10-15T08:04:38.843Z,79
2017-10-15T08:05:39.575Z,79
2017-10-15T08:06:40.305Z,78
2017-10-15T08:07:41.037Z,78
2017-10-15T08:08:41.766Z,77
2017-10-15T08:09:42.510Z,76
2017-10-15T08:10:43.239Z,74
2017-10-15T08:11:43.976Z,73
2017-10-15T08:12:44.714Z,74
2017-10-15T08:13:45.445Z,73
2017-10-15T08:14:46.175Z,74
2017-10-15T08:15:46.912Z,73
2017-10-15T08:16:47.642Z,73
2017-10-15T08:17:48.371Z,74
2017-10-15T08:18:49.103Z,71
2017-10-15T08:19:49.850Z,72
2017-10-15T08:20:50.577Z,73
2017-10-15T08:21:51.309Z,73
2017-10-15T08:22:52.040Z,74
2017-10-15T08:23:52.769Z,73
2017-10-15T08:24:53.499Z,73
2017-10-15T08:25:54.229Z,73
2017-10-15T08:26:54.959Z,72
2017-10-15T08:27:55.693Z,71
2017-10-15T08:28:56.425Z,71
2017-10-15T08:29:57.151Z,69
2017-10-15T08:30:57.880Z,69
2017-10-15T08:31:58.607Z,69
2017-10-15T08:32:59.347Z,69
2017-10-15T08:34:00.074Z,69
2017-10-15T08:35:00.814Z,69
2017-10-15T08:36:01.558Z,71
2017-10-15T08:37:02.300Z,71
2017-10-15T08:38:03.026Z,71
2017-10-15T08:39:03.756Z,71
2017-10-15T08:40:04.485Z,71
2017-10-15T08:41:05.215Z,69
2017-10-15T08:42:05.943Z,68
2017-10-15T08:43:06.686Z,65
2017-10-15T08:44:07.429Z,64
2017-10-15T08:45:08.161Z,63
2017-10-15T08:46:08.894Z,63
2017-10-15T08:47:09.619Z,62
2017-10-15T08:48:10.348Z,62
2017-10-15T08:49:11.078Z,60
2017-10-15T08:50:11.807Z,62
2017-10-15T08:51:12.537Z,62
2017-10-15T08:52:13.267Z,63
2017-10-15T08:53:14.000Z,62
2017-10-15T08:54:14.732Z,63
2017-10-15T08:55:15.472Z,63
2017-10-15T08:56:16.202Z,61
2017-10-15T08:57:16.931Z,61
2017-10-15T08:58:17.660Z,60
2017-10-15T08:59:18.394Z,59
2017-10-15T09:00:19.125Z,60
2017-10-15T09:01:19.867Z,62
2017-10-15T09:02:20.598Z,63
2017-10-15T09:03:21.340Z,63
2017-10-15T09:04:22.070Z,65
2017-10-15T09:05:22.803Z,66
2017-10-15T09:06:23.532Z,65
2017-10-15T09:07:24.263Z,66
2017-10-15T09:08:25.007Z,66
2017-10-15T09:09:25.738Z,66
2017-10-15T09:10:26.470Z,66
2017-10-15T09:11:27.202Z,66
2017-10-15T09:12:27.934Z,66
2017-10-15T09:13:28.678Z,65
2017-10-15T09:14:29.409Z,64
2017-10-15T09:15:30.142Z,62
2017-10-15T09:16:30.874Z,61
2017-10-15T09:17:31.607Z,61
2017-10-15T09:18:32.351Z,60
2017-10-15T09:19:33.097Z,59
2017-10-15T09:20:33.829Z,59
2017-10-15T09:21:34.577Z,60
2017-10-15T09:22:35.305Z,62
2017-10-15T09:23:36.051Z,62
2017-10-15T09:24:36.788Z,63
2017-10-15T09:25:37.513Z,62
2017-10-15T09:26:38.247Z,60
2017-10-15T09:27:38.977Z,59
2017-10-15T09:28:39.710Z,59
2017-10-15T09:29:40.443Z,57
2017-10-15T09:30:41.175Z,57
2017-10-15T09:31:41.919Z,57
2017-10-15T09:32:42.663Z,56
2017-10-15T09:33:43.398Z,56
2017-10-15T09:34:44.131Z,57
2017-10-15T09:35:44.862Z,54
2017-10-15T09:36:45.597Z,52
2017-10-15T09:37:46.330Z,53
2017-10-15T09:38:47.062Z,52
2017-10-15T09:39:47.793Z,51
2017-10-15T09:40:48.527Z,52
2017-10-15T09:41:49.259Z,50
2017-10-15T09:42:49.991Z,49
2017-10-15T09:43:50.726Z,49
2017-10-15T09:44:51.461Z,49
2017-10-15T09:45:52.196Z,48
2017-10-15T09:46:52.930Z,48
2017-10-15T09:47:53.665Z,47
2017-10-15T09:48:54.398Z,48
2017-10-15T09:49:55.133Z,49
2017-10-15T09:50:55.867Z,49
2017-10-15T09:51:56.604Z,50
2017-10-15T09:52:57.338Z,51
2017-10-15T09:53:58.073Z,53
2017-10-15T09:54:58.809Z,54
2017-10-15T09:55:59.544Z,53
2017-10-15T09:57:00.278Z,50
2017-10-15T09:58:01.021Z,50
2017-10-15T09:59:01.748Z,49
2017-10-15T10:00:02.494Z,48
2017-10-15T10:01:03.227Z,47
2017-10-15T10:02:03.962Z,47
2017-10-15T10:03:04.702Z,46
2017-10-15T10:04:05.438Z,47
2017-10-15T10:05:06.173Z,50
2017-10-15T10:06:06.912Z,51
2017-10-15T10:07:07.658Z,52
2017-10-15T10:08:08.396Z,52
2017-10-15T10:09:09.136Z,52
2017-10-15T10:10:09.883Z,52
2017-10-15T10:11:10.618Z,54
2017-10-15T10:12:11.355Z,55
2017-10-15T10:13:12.106Z,54
2017-10-15T10:14:12.844Z,52
2017-10-15T10:15:13.576Z,51
2017-10-15T10:16:14.317Z,50
2017-10-15T10:17:15.050Z,50
2017-10-15T10:18:15.792Z,49
2017-10-15T10:19:16.532Z,51
2017-10-15T10:20:17.270Z,53
2017-10-15T10:21:18.011Z,52
2017-10-15T10:22:18.746Z,52
2017-10-15T10:23:19.483Z,52
2017-10-15T10:24:20.217Z,53
2017-10-15T10:25:20.967Z,53
2017-10-15T10:26:21.704Z,53
2017-10-15T10:27:22.445Z,55
2017-10-15T10:28:23.182Z,54
2017-10-15T10:29:23.920Z,53
2017-10-15T10:30:24.658Z,53
2017-10-15T10:31:25.396Z,53
2017-10-15T10:32:26.138Z,53
2017-10-15T10:33:26.884Z,52
2017-10-15T10:34:27.624Z,52
2017-10-15T10:35:28.364Z,48
2017-10-15T10:36:29.114Z,49
2017-10-15T10:37:29.872Z,48
2017-10-15T10:38:30.625Z,47
2017-10-15T10:39:31.381Z,45
2017-10-15T10:40:32.123Z,43
2017-10-15T10:41:32.868Z,42
2017-10-15T10:42:33.624Z,42
2017-10-15T10:43:34.368Z,45
2017-10-15T10:44:35.114Z,44
2017-10-15T10:45:35.859Z,47
2017-10-15T10:46:36.599Z,46
2017-10-15T10:47:37.341Z,47
2017-10-15T10:48:38.084Z,47
2017-10-15T10:49:38.826Z,47
2017-10-15T10:50:39.580Z,46
2017-10-15T10:51:40.317Z,46
2017-10-15T10:52:41.071Z,47
2017-10-15T10:53:41.826Z,47
2017-10-15T10:54:42.577Z,48
2017-10-15T10:55:43.323Z,49
2017-10-15T10:56:44.073Z,48
2017-10-15T10:57:44.820Z,46
2017-10-15T10:58:45.572Z,46
2017-10-15T10:59:46.311Z,46
2017-10-15T11:00:47.059Z,45
2017-10-15T11:01:47.800Z,46
2017-10-15T11:02:48.550Z,46
2017-10-15T11:03:49.291Z,46
2017-10-15T11:04:50.033Z,46
2017-10-15T11:05:50.774Z,46
2017-10-15T11:06:51.513Z,45
2017-10-15T11:07:52.264Z,44
2017-10-15T11:08:53.000Z,42
2017-10-15T11:09:53.754Z,42
2017-10-15T11:10:54.494Z,42
2017-10-15T11:11:55.239Z,46
2017-10-15T11:12:55.995Z,46
2017-10-15T11:13:56.737Z,46
2017-10-15T11:14:57.476Z,46
2017-10-15T11:15:58.215Z,46
2017-10-15T11:16:58.960Z,46
2017-10-15T11:17:59.713Z,46
2017-10-15T11:19:00.454Z,44
2017-10-15T11:20:01.191Z,43
2017-10-15T11:21:02.547Z,42
2017-10-15T11:22:03.290Z,42
2017-10-15T11:23:04.029Z,41
2017-10-15T11:24:04.771Z,41
2017-10-15T11:25:05.509Z,42
2017-10-15T11:26:06.252Z,45
2017-10-15T11:27:06.994Z,46
2017-10-15T11:28:07.732Z,48
2017-10-15T11:29:08.474Z,48
2017-10-15T11:30:09.241Z,47
2017-10-15T11:31:09.964Z,49
2017-10-15T11:32:10.718Z,50
2017-10-15T11:33:11.459Z,49
2017-10-15T11:34:12.197Z,49
2017-10-15T11:35:12.951Z,47
2017-10-15T11:36:13.694Z,46
2017-10-15T11:37:14.454Z,46
2017-10-15T11:38:15.207Z,46
2017-10-15T11:39:15.950Z,46
2017-10-15T11:40:16.708Z,47
2017-10-15T11:41:17.452Z,46
2017-10-15T11:42:18.195Z,46
2017-10-15T11:43:18.939Z,45
2017-10-15T11:44:19.683Z,44
2017-10-15T11:45:20.429Z,45
2017-10-15T11:46:21.172Z,45
2017-10-15T11:47:21.928Z,45
2017-10-15T11:48:22.671Z,44
2017-10-15T11:49:23.414Z,44
2017-10-15T11:50:24.156Z,45
2017-10-15T11:51:24.896Z,46
2017-10-15T11:52:25.649Z,47
2017-10-15T11:53:26.390Z,46
2017-10-15T11:54:27.135Z,46
2017-10-15T11:55:27.877Z,45
2017-10-15T11:56:28.617Z,44
2017-10-15T11:57:29.362Z,44
2017-10-15T11:58:30.112Z,43
2017-10-15T11:59:30.856Z,42
2017-10-15T12:00:31.594Z,42
2017-10-15T12:01:32.340Z,45
2017-10-15T12:02:33.083Z,45
2017-10-15T12:03:33.822Z,47
2017-10-15T12:04:34.564Z,48
2017-10-15T12:05:35.305Z,48
2017-10-15T12:06:36.048Z,48
2017-10-15T12:07:36.787Z,47
2017-10-15T12:08:37.540Z,47
2017-10-15T12:09:38.280Z,46
2017-10-15T12:10:39.021Z,46
2017-10-15T12:11:40.380Z,47
2017-10-15T12:12:41.123Z,47
2017-10-15T12:13:41.877Z,47
2017-10-15T12:14:42.620Z,47
2017-10-15T12:15:43.361Z,48
2017-10-15T12:16:44.107Z,48
2017-10-15T12:17:44.847Z,48
2017-10-15T12:18:45.588Z,47
2017-10-15T12:19:46.327Z,48
2017-10-15T12:20:47.068Z,47
2017-10-15T12:21:47.821Z,48
2017-10-15T12:22:48.562Z,49
2017-10-15T12:23:49.302Z,47
2017-10-15T12:24:50.043Z,46
2017-10-15T12:25:50.785Z,46
2017-10-15T12:26:51.524Z,47
2017-10-15T12:27:52.261Z,47
2017-10-15T12:28:52.998Z,47
2017-10-15T12:29:53.733Z,47
2017-10-15T12:30:54.477Z,47
2017-10-15T12:31:55.213Z,46
2017-10-15T12:32:55.957Z,47
2017-10-15T12:33:56.696Z,48
2017-10-15T12:34:57.430Z,50
2017-10-15T12:35:58.166Z,51
2017-10-15T12:36:58.901Z,52
2017-10-15T12:37:59.633Z,51
2017-10-15T12:39:00.367Z,49
2017-10-15T12:40:01.101Z,50
2017-10-15T12:41:01.832Z,50
2017-10-15T12:42:02.567Z,49
2017-10-15T12:43:03.298Z,50
2017-10-15T12:44:04.032Z,49
2017-10-15T12:45:04.765Z,47
2017-10-15T12:46:05.500Z,47
2017-10-15T12:47:06.243Z,46
2017-10-15T12:48:06.977Z,45
2017-10-15T12:49:07.724Z,44
2017-10-15T12:50:08.468Z,44
2017-10-15T12:51:09.205Z,43
2017-10-15T12:52:09.951Z,42
2017-10-15T12:53:10.686Z,39
2017-10-15T12:54:11.431Z,39
2017-10-15T12:55:12.187Z,41
2017-10-15T12:56:12.916Z,41
2017-10-15T12:57:13.655Z,40
2017-10-15T12:58:14.398Z,39
2017-10-15T12:59:15.137Z,41
2017-10-15T13:00:15.871Z,40
2017-10-15T13:01:16.606Z,40
2017-10-15T13:02:17.344Z,39
2017-10-15T13:03:18.079Z,39
2017-10-15T13:04:18.815Z,38
2017-10-15T13:05:19.556Z,39
2017-10-15T13:06:20.290Z,39
2017-10-15T13:07:21.023Z,39
2017-10-15T13:08:21.761Z,39
2017-10-15T13:09:22.496Z,39
2017-10-15T13:10:23.232Z,39
2017-10-15T13:11:23.963Z,41
2017-10-15T13:12:24.700Z,41
2017-10-15T13:13:25.434Z,42
2017-10-15T13:14:26.169Z,43
2017-10-15T13:15:26.901Z,42
2017-10-15T13:16:27.635Z,42
2017-10-15T13:17:28.367Z,43
2017-10-15T13:18:29.112Z,43
2017-10-15T13:19:29.849Z,42
2017-10-15T13:20:30.579Z,41
2017-10-15T13:21:31.323Z,42
2017-10-15T13:22:32.069Z,41
2017-10-15T13:23:32.802Z,40
2017-10-15T13:24:33.533Z,40
2017-10-15T13:25:34.263Z,40
2017-10-15T13:26:34.995Z,40
2017-10-15T13:27:35.739Z,40
2017-10-15T13:28:36.469Z,41
2017-10-15T13:29:37.199Z,40
2017-10-15T13:30:37.929Z,42
2017-10-15T13:31:38.662Z,41
2017-10-15T13:32:39.393Z,40
2017-10-15T13:33:40.121Z,41
2017-10-15T13:34:40.852Z,41
2017-10-15T13:35:41.595Z,41
2017-10-15T13:36:42.338Z,42
2017-10-15T13:37:43.080Z,41
2017-10-15T13:38:43.811Z,42
2017-10-15T13:39:44.543Z,42
2017-10-15T13:40:45.272Z,42
2017-10-15T13:41:46.002Z,43
2017-10-15T13:42:46.729Z,42
2017-10-15T13:43:47.459Z,42
2017-10-15T13:44:48.200Z,41
2017-10-15T13:45:48.928Z,41
2017-10-15T13:46:49.658Z,42
2017-10-15T13:47:50.389Z,40
2017-10-15T13:48:51.124Z,40
2017-10-15T13:49:51.846Z,40
2017-10-15T13:50:52.577Z,41
2017-10-15T13:51:53.309Z,40
2017-10-15T13:52:54.050Z,41
2017-10-15T13:53:54.782Z,41
2017-10-15T13:54:55.511Z,42
2017-10-15T13:55:56.239Z,41
2017-10-15T13:56:56.971Z,40
2017-10-15T13:57:57.705Z,40
2017-10-15T13:58:58.430Z,40
2017-10-15T13:59:59.160Z,39
2017-10-15T14:00:59.901Z,40
2017-10-15T14:02:00.645Z,39
2017-10-15T14:03:01.385Z,39
2017-10-15T14:04:02.122Z,40
2017-10-15T14:05:02.848Z,40
2017-10-15T14:06:03.571Z,39
2017-10-15T14:07:04.320Z,40
2017-10-15T14:08:05.026Z,40
2017-10-15T14:09:05.766Z,40
2017-10-15T14:10:06.495Z,41
2017-10-15T14:11:07.223Z,42